SBOSBO PUJ / MDPC
Speedbird OnlineSpeedbird Online PUJ / MDPC

Punta Cana International Airport
19:12 27°C

Location Punta Cana, Dominican Republic
Latitude: 18.567399978599997
Longitude: -68.36340332030001
Local Time 19:12 on 21 Jun 2024
UTC -4 hours (America/Santo_Domingo)
Currency £1 equals DOP 74.78
METAR MDPC 212200Z 14010KT 8000 -TSVCSH FEW016CB SCT018 BKN070 27/24 Q1015 CB/SE/S/SW
TAF TAF MDPC 211600Z 2118/2218 06015KT 9999 BKN018 BKN300 PROB30 2118/2200 7000 -TSRA FEW016CB BKN018 BKN070
Weather As Of 21 Jun 2024 19:12
Description Thunderstorm with light rain
Wind 7 km/h from East (110°)
Cloud Cover 75%
Precipitation Rain: none, Snow: none
Sunrise 05:57
Sunset 19:12
NOTAM 8 active NOTAM
Rotations During the last 90 days there were
34 flights from LGW
36 flights to LGW
Lounges VIP Lounge, Terminal B
Web Wikipedia
Codes IATA: PUJ
ICAO: MDPC
Altitude 14 Meter / 47 Feet
Distance 6,922 KM / 4,301 Miles
from London.
Runways
RunwayLength (m)Surface
083100Asphalt
093100Asphalt
263100Asphalt
273100Asphalt
Radio
TypeDescriptionFrequency
A/DAPP119.7
APPLAS AMERICAS APP119.3
ATIS132.85
DLVDELIVERY121.65
GNDGROUND121.9
TWRTWR118.8
Live ATC



Support Speedbird Online

© 2017-2024 Speedbird Online